Academy, South Dakota
Current Conditions -  °F | °C
As of 10:15 PM on Monday 22 Dec 2014 (Local Time) from K9V9 Reporting Station
Light Snow Light Snow  
Wind Chill: 21°   Ceiling: 700
Heat Index: 31°   Visibility: 5mi
Dew Point: 30°   Wind: 14mph
Humidity: 95%   Direction: 320°NW
Pressure: 29.54"   Gusts: NA
Location:  43.4255°N, 98.9806°W
Report Text: K9V9 230415Z AUTO 32012KT 5SM -SN OVC007 00/M01 A2954 RMK AO2 T10031010
Loading
Personal Weather Stations






























Interactive Weather Map New forecast layout! Learn more

10-Day Weather Forecast

Advertisements
Track Severe Weather on mobile